createdAt,value
2023-05-21T00:02:19.056Z,4.40
2023-05-21T00:04:45.794Z,4.50
2023-05-21T00:07:12.483Z,4.80
2023-05-21T00:09:39.139Z,4.45
2023-05-21T00:12:06.803Z,4.70
2023-05-21T00:14:33.774Z,4.40
2023-05-21T00:17:00.282Z,4.57
2023-05-21T00:19:26.829Z,4.32
2023-05-21T00:21:53.424Z,4.55
2023-05-21T00:24:19.811Z,5.30
2023-05-21T00:26:46.169Z,4.78
2023-05-21T00:29:12.510Z,4.55
2023-05-21T00:31:38.957Z,4.60
2023-05-21T00:34:05.327Z,4.82
2023-05-21T00:36:31.684Z,4.43
2023-05-21T00:38:58.076Z,4.82
2023-05-21T00:41:24.441Z,4.70
2023-05-21T00:43:50.843Z,4.80
2023-05-21T00:46:18.991Z,4.55
2023-05-21T00:48:46.396Z,4.70
2023-05-21T00:51:16.523Z,4.82
2023-05-21T00:53:44.911Z,4.88
2023-05-21T00:56:11.442Z,4.90
2023-05-21T00:58:39.262Z,4.72
2023-05-21T01:01:05.680Z,4.65
2023-05-21T01:03:35.287Z,4.55
2023-05-21T01:06:01.756Z,4.70
2023-05-21T01:08:28.248Z,5.20
2023-05-21T01:10:55.489Z,5.00
2023-05-21T01:13:22.704Z,4.93
2023-05-21T01:15:50.497Z,5.15
2023-05-21T01:18:17.047Z,4.82
2023-05-21T01:20:43.615Z,4.47
2023-05-21T01:23:10.449Z,4.78
2023-05-21T01:25:37.092Z,4.68
2023-05-21T01:28:03.754Z,4.57
2023-05-21T01:30:30.277Z,5.30
2023-05-21T01:33:07.756Z,5.00
2023-05-21T01:36:00.920Z,5.00
2023-05-21T01:38:33.962Z,5.10
2023-05-21T01:41:03.181Z,5.40
2023-05-21T01:43:32.835Z,5.00
2023-05-21T01:46:00.671Z,5.30
2023-05-21T01:48:31.083Z,5.57
2023-05-21T01:51:03.652Z,5.45
2023-05-21T01:53:30.584Z,5.60
2023-05-21T01:55:56.973Z,5.13
2023-05-21T01:58:23.406Z,5.72
2023-05-21T02:00:49.957Z,5.97
2023-05-21T02:03:17.059Z,5.78
2023-05-21T02:05:43.710Z,6.18
2023-05-21T02:08:10.125Z,5.88
2023-05-21T02:10:36.695Z,5.75
2023-05-21T02:13:03.102Z,5.97
2023-05-21T02:15:29.614Z,6.60
2023-05-21T02:17:56.257Z,5.95
2023-05-21T02:20:22.882Z,6.00
2023-05-21T02:22:49.614Z,6.05
2023-05-21T02:25:18.356Z,5.30
2023-05-21T02:27:44.795Z,6.05
2023-05-21T02:30:13.206Z,6.03
2023-05-21T02:32:40.329Z,6.25
2023-05-21T02:35:06.995Z,6.53
2023-05-21T02:37:34.156Z,5.63
2023-05-21T02:40:04.641Z,6.05
2023-05-21T02:42:31.376Z,5.78
2023-05-21T02:44:57.879Z,5.57
2023-05-21T02:47:24.459Z,6.00
2023-05-21T02:49:52.200Z,5.63
2023-05-21T02:52:20.065Z,5.32
2023-05-21T02:54:46.981Z,5.78
2023-05-21T02:57:13.538Z,6.10
2023-05-21T02:59:39.938Z,5.53
2023-05-21T03:02:06.777Z,5.63
2023-05-21T03:04:33.191Z,5.68
2023-05-21T03:06:59.708Z,5.88
2023-05-21T03:09:26.069Z,6.30
2023-05-21T03:11:52.463Z,5.70
2023-05-21T03:14:18.886Z,5.93
2023-05-21T03:16:45.298Z,5.80
2023-05-21T03:19:13.166Z,6.10
2023-05-21T03:21:39.640Z,5.63
2023-05-21T03:24:06.499Z,5.80
2023-05-21T03:26:33.081Z,5.50
2023-05-21T03:28:59.522Z,5.50
2023-05-21T03:31:26.617Z,6.45
2023-05-21T03:33:53.118Z,6.13
2023-05-21T03:36:19.967Z,6.38
2023-05-21T03:38:46.428Z,6.05
2023-05-21T03:41:12.990Z,5.60
2023-05-21T03:43:39.487Z,6.20
2023-05-21T03:46:05.872Z,5.72
2023-05-21T03:48:32.295Z,6.28
2023-05-21T03:50:58.682Z,6.00
2023-05-21T03:53:25.056Z,5.88
2023-05-21T03:55:51.502Z,6.18
2023-05-21T03:58:17.909Z,5.97
2023-05-21T04:00:44.266Z,5.65
2023-05-21T04:03:10.751Z,6.18
2023-05-21T04:05:37.407Z,5.53
2023-05-21T04:08:03.946Z,5.72
2023-05-21T04:10:30.335Z,5.72
2023-05-21T04:12:56.711Z,6.40
2023-05-21T04:15:23.042Z,5.70
2023-05-21T04:17:49.487Z,5.57
2023-05-21T04:20:15.909Z,5.45
2023-05-21T04:22:43.065Z,5.93
2023-05-21T04:25:09.693Z,5.63
2023-05-21T04:27:37.037Z,5.85
2023-05-21T04:30:04.585Z,5.18
2023-05-21T04:32:31.337Z,5.10
2023-05-21T04:34:57.694Z,5.00
2023-05-21T04:37:24.046Z,5.38
2023-05-21T04:39:50.427Z,5.07
2023-05-21T04:42:16.807Z,5.18
2023-05-21T04:44:43.161Z,5.43
2023-05-21T04:47:09.674Z,5.03
2023-05-21T04:49:36.093Z,5.30
2023-05-21T04:52:02.543Z,5.28
2023-05-21T04:54:28.960Z,5.15
2023-05-21T04:56:55.331Z,5.07
2023-05-21T04:59:21.780Z,4.93
2023-05-21T05:01:48.281Z,5.25
2023-05-21T05:04:14.616Z,5.18
2023-05-21T05:06:41.008Z,5.18
2023-05-21T05:09:07.380Z,5.28
2023-05-21T05:11:33.774Z,5.10
2023-05-21T05:14:00.139Z,5.72
2023-05-21T05:16:26.536Z,5.65
2023-05-21T05:18:53.357Z,5.47
2023-05-21T05:21:22.205Z,5.10
2023-05-21T05:23:48.573Z,5.32
2023-05-21T05:26:14.931Z,5.65
2023-05-21T05:28:41.353Z,5.38
2023-05-21T05:31:08.418Z,5.22
2023-05-21T05:33:34.811Z,5.65
2023-05-21T05:36:01.214Z,5.68
2023-05-21T05:38:27.597Z,5.13
2023-05-21T05:40:54.033Z,5.70
2023-05-21T05:43:20.445Z,5.60
2023-05-21T05:45:46.952Z,5.15
2023-05-21T05:48:13.353Z,5.32
2023-05-21T05:50:39.774Z,5.10
2023-05-21T05:53:06.140Z,5.10
2023-05-21T05:55:32.575Z,5.05
2023-05-21T05:57:59.002Z,5.18
2023-05-21T06:00:25.483Z,5.70
2023-05-21T06:02:51.899Z,5.35
2023-05-21T06:05:18.381Z,5.40
2023-05-21T06:07:44.841Z,5.00
2023-05-21T06:10:11.202Z,5.18
2023-05-21T06:12:37.628Z,5.40
2023-05-21T06:15:05.580Z,5.45
2023-05-21T06:17:32.064Z,5.00
2023-05-21T06:19:58.575Z,5.95
2023-05-21T06:22:25.655Z,5.72
2023-05-21T06:24:52.344Z,5.47
2023-05-21T06:27:18.732Z,5.45
2023-05-21T06:29:45.123Z,5.60
2023-05-21T06:32:11.512Z,5.72
2023-05-21T06:34:37.908Z,5.82
2023-05-21T06:37:04.417Z,5.05
2023-05-21T06:39:30.772Z,5.40
2023-05-21T06:41:57.179Z,4.82
2023-05-21T06:44:23.532Z,5.20
2023-05-21T06:46:49.954Z,5.68
2023-05-21T06:49:16.337Z,5.90
2023-05-21T06:51:42.782Z,5.18
2023-05-21T06:54:09.171Z,5.38
2023-05-21T06:56:35.572Z,5.88
2023-05-21T06:59:01.961Z,5.43
2023-05-21T07:01:28.447Z,5.75
2023-05-21T07:03:54.847Z,5.45
2023-05-21T07:06:21.329Z,5.20
2023-05-21T07:08:47.721Z,5.57
2023-05-21T07:11:14.070Z,4.55
2023-05-21T07:13:40.419Z,5.35
2023-05-21T07:16:07.310Z,5.50
2023-05-21T07:18:33.689Z,5.80
2023-05-21T07:21:00.100Z,5.25
2023-05-21T07:23:26.494Z,5.80
2023-05-21T07:25:52.889Z,5.65
2023-05-21T07:28:19.268Z,5.40
2023-05-21T07:30:45.653Z,5.13
2023-05-21T07:33:12.081Z,4.97
2023-05-21T07:35:38.693Z,5.10
2023-05-21T07:38:05.170Z,5.57
2023-05-21T07:40:31.569Z,4.78
2023-05-21T07:42:57.957Z,4.60
2023-05-21T07:45:24.390Z,4.80
2023-05-21T07:47:50.813Z,4.95
2023-05-21T07:50:17.373Z,4.80
2023-05-21T07:52:43.828Z,5.05
2023-05-21T07:55:10.624Z,4.68
2023-05-21T07:57:37.305Z,5.18
2023-05-21T08:00:04.089Z,4.70
2023-05-21T08:02:30.644Z,4.55
2023-05-21T08:04:57.070Z,5.38
2023-05-21T08:07:23.452Z,4.70
2023-05-21T08:09:49.804Z,5.10
2023-05-21T08:12:16.239Z,4.80
2023-05-21T08:14:42.685Z,6.13
2023-05-21T08:17:09.730Z,4.80
2023-05-21T08:19:36.187Z,4.63
2023-05-21T08:22:02.626Z,5.25
2023-05-21T08:24:29.119Z,4.13
2023-05-21T08:26:55.484Z,5.30
2023-05-21T08:29:21.877Z,4.68
2023-05-21T08:31:48.310Z,5.13
2023-05-21T08:34:14.703Z,5.00
2023-05-21T08:36:41.090Z,4.70
2023-05-21T08:39:07.447Z,4.85
2023-05-21T08:41:35.538Z,5.00
2023-05-21T08:44:02.686Z,5.07
2023-05-21T08:46:33.620Z,4.80
2023-05-21T08:49:02.734Z,5.30
2023-05-21T08:51:30.884Z,5.43
2023-05-21T08:53:59.635Z,5.15
2023-05-21T08:56:27.073Z,5.07
2023-05-21T08:58:53.717Z,5.35
2023-05-21T09:01:22.391Z,5.07
2023-05-21T09:03:52.403Z,5.30
2023-05-21T09:06:19.520Z,5.60
2023-05-21T09:08:53.928Z,5.63
2023-05-21T09:11:20.344Z,6.20
2023-05-21T09:13:47.339Z,4.78
2023-05-21T09:16:13.769Z,5.28
2023-05-21T09:18:40.121Z,5.38
2023-05-21T09:21:26.855Z,5.53
2023-05-21T09:23:57.622Z,5.15
2023-05-21T09:26:25.232Z,5.10
2023-05-21T09:28:55.979Z,4.90
2023-05-21T09:31:23.693Z,4.88
2023-05-21T09:33:50.147Z,5.82
2023-05-21T09:36:20.252Z,4.93
2023-05-21T09:38:48.722Z,5.68
2023-05-21T09:41:17.888Z,5.43
2023-05-21T09:43:46.300Z,5.50
2023-05-21T09:46:12.698Z,5.35
2023-05-21T09:48:43.059Z,5.30
2023-05-21T09:51:14.416Z,5.30
2023-05-21T09:53:54.570Z,5.13
2023-05-21T09:56:23.368Z,5.63
2023-05-21T09:59:01.096Z,5.38
2023-05-21T10:03:56.319Z,5.15
2023-05-21T10:06:27.619Z,5.05
2023-05-21T10:08:55.914Z,5.47
2023-05-21T10:11:25.725Z,5.07
2023-05-21T10:14:00.083Z,5.53
2023-05-21T10:16:26.739Z,5.70
2023-05-21T10:18:54.986Z,5.78
2023-05-21T10:21:22.103Z,5.40
2023-05-21T10:23:49.454Z,5.45
2023-05-21T10:26:16.165Z,5.80
2023-05-21T10:28:43.382Z,5.85
2023-05-21T10:31:10.145Z,5.38
2023-05-21T10:33:38.336Z,6.28
2023-05-21T10:36:05.360Z,5.65
2023-05-21T10:38:33.420Z,5.35
2023-05-21T10:41:01.289Z,6.30
2023-05-21T10:43:48.043Z,5.25
2023-05-21T10:46:51.878Z,6.00
2023-05-21T10:49:30.483Z,5.75
2023-05-21T10:52:37.276Z,5.90
2023-05-21T10:55:23.076Z,5.80
2023-05-21T10:58:09.233Z,6.22
2023-05-21T11:00:35.936Z,6.10
2023-05-21T11:03:04.513Z,6.32
2023-05-21T11:05:46.356Z,6.60
2023-05-21T11:08:22.581Z,6.07
2023-05-21T11:10:53.707Z,6.30
2023-05-21T11:13:20.684Z,6.60
2023-05-21T11:15:59.421Z,5.75
2023-05-21T11:18:38.071Z,7.05
2023-05-21T11:21:12.741Z,6.53
2023-05-21T11:23:51.130Z,6.88
2023-05-21T11:26:18.967Z,7.28
2023-05-21T11:28:45.454Z,6.82
2023-05-21T11:31:25.197Z,6.78
2023-05-21T11:34:20.302Z,7.00
2023-05-21T11:36:47.961Z,6.43
2023-05-21T11:39:18.654Z,6.95
2023-05-21T11:41:59.784Z,7.10
2023-05-21T11:44:48.829Z,6.85
2023-05-21T11:47:17.451Z,7.50
2023-05-21T11:49:44.387Z,6.55
2023-05-21T11:52:12.384Z,6.93
2023-05-21T11:54:50.988Z,7.90
2023-05-21T11:57:17.932Z,7.97
2023-05-21T11:59:45.450Z,7.53
2023-05-21T12:02:20.225Z,7.55
2023-05-21T12:04:48.905Z,7.95
2023-05-21T12:07:17.229Z,7.80
2023-05-21T12:09:48.234Z,7.28
2023-05-21T12:12:17.006Z,7.43
2023-05-21T12:14:45.790Z,8.15
2023-05-21T12:17:12.765Z,8.10
2023-05-21T12:19:39.539Z,7.85
2023-05-21T12:22:07.322Z,7.88
2023-05-21T12:24:35.007Z,8.88
2023-05-21T12:27:07.772Z,8.65
2023-05-21T12:29:35.952Z,7.68
2023-05-21T12:32:03.752Z,8.57
2023-05-21T12:34:53.327Z,8.95
2023-05-21T12:37:24.694Z,9.00
2023-05-21T12:39:52.861Z,8.75
2023-05-21T12:42:30.645Z,8.27
2023-05-21T12:44:58.000Z,8.70
2023-05-21T12:47:25.914Z,9.15
2023-05-21T12:49:57.501Z,8.75
2023-05-21T12:52:24.588Z,8.80
2023-05-21T12:54:53.297Z,7.93
2023-05-21T12:57:25.218Z,9.30
2023-05-21T12:59:57.032Z,9.05
2023-05-21T13:02:34.660Z,8.82
2023-05-21T13:05:06.726Z,9.30
2023-05-21T13:07:34.869Z,8.90
2023-05-21T13:10:02.366Z,8.73
2023-05-21T13:12:30.435Z,9.25
2023-05-21T13:14:58.739Z,8.90
2023-05-21T13:17:26.136Z,8.48
2023-05-21T13:20:18.787Z,9.30
2023-05-21T13:22:47.242Z,8.85
2023-05-21T13:25:20.224Z,8.43
2023-05-21T13:27:48.046Z,9.43
2023-05-21T13:30:14.597Z,9.77
2023-05-21T13:32:42.233Z,9.57
2023-05-21T13:35:09.433Z,9.80
2023-05-21T13:37:36.352Z,9.30
2023-05-21T13:40:07.432Z,9.00
2023-05-21T13:42:34.985Z,8.75
2023-05-21T13:45:01.431Z,9.27
2023-05-21T13:47:27.855Z,9.65
2023-05-21T13:49:54.196Z,9.38
2023-05-21T13:52:20.572Z,8.23
2023-05-21T13:54:47.306Z,9.50
2023-05-21T13:57:13.716Z,9.32
2023-05-21T13:59:40.132Z,9.65
2023-05-21T14:02:08.038Z,10.45
2023-05-21T14:04:35.361Z,8.73
2023-05-21T14:07:03.312Z,8.60
2023-05-21T14:09:30.786Z,9.13
2023-05-21T14:11:57.499Z,9.02
2023-05-21T14:14:24.154Z,9.60
2023-05-21T14:16:51.502Z,9.02
2023-05-21T14:19:18.231Z,9.18
2023-05-21T14:21:44.803Z,9.50
2023-05-21T14:24:11.187Z,9.20
2023-05-21T14:26:39.862Z,9.05
2023-05-21T14:29:06.291Z,9.23
2023-05-21T14:31:32.788Z,9.95
2023-05-21T14:33:59.139Z,10.10
2023-05-21T14:36:25.525Z,8.93
2023-05-21T14:38:51.883Z,9.57
2023-05-21T14:41:18.292Z,9.93
2023-05-21T14:43:44.746Z,9.50
2023-05-21T14:46:11.276Z,9.27
2023-05-21T14:48:37.688Z,9.60
2023-05-21T14:51:04.091Z,10.30
2023-05-21T14:53:30.458Z,9.07
2023-05-21T14:55:56.833Z,9.80
2023-05-21T14:58:23.193Z,9.85
2023-05-21T15:00:49.545Z,9.93
2023-05-21T15:03:15.974Z,9.88
2023-05-21T15:05:42.424Z,9.52
2023-05-21T15:08:08.858Z,9.57
2023-05-21T15:10:35.360Z,9.55
2023-05-21T15:13:01.704Z,9.07
2023-05-21T15:15:28.186Z,9.52
2023-05-21T15:17:54.648Z,10.02
2023-05-21T15:20:21.909Z,9.98
2023-05-21T15:22:48.351Z,9.77
2023-05-21T15:25:14.959Z,10.07
2023-05-21T15:27:41.349Z,9.75
2023-05-21T15:30:08.071Z,9.90
2023-05-21T15:32:34.443Z,10.07
2023-05-21T15:35:00.933Z,11.13
2023-05-21T15:37:27.415Z,10.70
2023-05-21T15:39:53.793Z,10.52
2023-05-21T15:42:20.158Z,10.45
2023-05-21T15:44:46.899Z,10.15
2023-05-21T15:47:13.260Z,10.43
2023-05-21T15:49:39.633Z,10.30
2023-05-21T15:52:06.564Z,10.20
2023-05-21T15:54:32.944Z,10.45
2023-05-21T15:56:59.338Z,10.70
2023-05-21T15:59:25.768Z,10.75
2023-05-21T16:01:52.159Z,10.98
2023-05-21T16:04:18.607Z,10.45
2023-05-21T16:06:45.018Z,10.63
2023-05-21T16:09:11.366Z,10.20
2023-05-21T16:11:37.715Z,9.90
2023-05-21T16:14:04.089Z,9.90
2023-05-21T16:16:30.471Z,10.50
2023-05-21T16:18:56.842Z,9.70
2023-05-21T16:21:23.637Z,9.40
2023-05-21T16:23:50.033Z,9.98
2023-05-21T16:26:16.454Z,10.88
2023-05-21T16:28:42.916Z,11.18
2023-05-21T16:31:09.326Z,10.02
2023-05-21T16:33:35.665Z,10.55
2023-05-21T16:36:02.179Z,10.45
2023-05-21T16:38:28.577Z,11.13
2023-05-21T16:40:54.992Z,9.38
2023-05-21T16:43:21.420Z,9.93
2023-05-21T16:45:47.895Z,8.63
2023-05-21T16:48:14.947Z,9.52
2023-05-21T16:50:41.830Z,9.73
2023-05-21T16:53:08.478Z,9.27
2023-05-21T16:55:36.623Z,9.73
2023-05-21T16:58:04.981Z,10.43
2023-05-21T17:00:31.689Z,9.50
2023-05-21T17:02:58.174Z,9.73
2023-05-21T17:05:24.577Z,10.35
2023-05-21T17:07:50.919Z,9.32
2023-05-21T17:10:19.273Z,9.38
2023-05-21T17:12:45.656Z,9.75
2023-05-21T17:15:12.012Z,9.25
2023-05-21T17:17:38.506Z,10.23
2023-05-21T17:20:05.554Z,10.85
2023-05-21T17:22:31.967Z,10.02
2023-05-21T17:24:58.327Z,9.77
2023-05-21T17:27:24.749Z,10.25
2023-05-21T17:29:51.172Z,9.32
2023-05-21T17:32:17.628Z,9.32
2023-05-21T17:34:44.159Z,10.23
2023-05-21T17:37:10.521Z,9.40
2023-05-21T17:39:36.839Z,9.55
2023-05-21T17:42:03.543Z,9.93
2023-05-21T17:44:29.933Z,9.75
2023-05-21T17:46:56.434Z,10.00
2023-05-21T17:49:23.150Z,10.02
2023-05-21T17:51:49.600Z,10.52
2023-05-21T17:54:16.027Z,10.07
2023-05-21T17:56:43.201Z,10.43
2023-05-21T17:59:11.625Z,11.07
2023-05-21T18:01:39.711Z,9.88
2023-05-21T18:04:07.020Z,10.65
2023-05-21T18:06:33.475Z,10.65
2023-05-21T18:08:59.822Z,10.70
2023-05-21T18:11:26.273Z,11.25
2023-05-21T18:13:53.499Z,10.88
2023-05-21T18:16:20.177Z,10.50
2023-05-21T18:18:46.855Z,11.07
2023-05-21T18:21:13.400Z,11.63
2023-05-21T18:23:39.793Z,11.20
2023-05-21T18:26:06.220Z,11.05
2023-05-21T18:28:32.921Z,10.65
2023-05-21T18:31:02.108Z,11.20
2023-05-21T18:33:28.503Z,11.43
2023-05-21T18:35:54.872Z,11.52
2023-05-21T18:38:21.416Z,11.23
2023-05-21T18:40:48.063Z,11.77
2023-05-21T18:43:14.494Z,10.88
2023-05-21T18:45:40.892Z,11.98
2023-05-21T18:48:07.327Z,11.43
2023-05-21T18:50:33.773Z,11.98
2023-05-21T18:53:00.236Z,12.20
2023-05-21T18:55:26.670Z,11.75
2023-05-21T18:57:54.084Z,11.98
2023-05-21T19:00:20.686Z,11.93
2023-05-21T19:02:47.480Z,12.23
2023-05-21T19:05:13.998Z,12.50
2023-05-21T19:07:40.469Z,12.15
2023-05-21T19:10:07.682Z,12.20
2023-05-21T19:12:34.267Z,12.30
2023-05-21T19:15:00.612Z,12.40
2023-05-21T19:17:27.020Z,12.38
2023-05-21T19:19:53.416Z,11.77
2023-05-21T19:22:19.936Z,12.73
2023-05-21T19:24:46.297Z,12.70
2023-05-21T19:27:12.657Z,12.77
2023-05-21T19:29:38.976Z,13.48
2023-05-21T19:32:05.786Z,13.52
2023-05-21T19:34:32.279Z,13.73
2023-05-21T19:36:58.720Z,13.93
2023-05-21T19:39:25.071Z,14.13
2023-05-21T19:41:51.460Z,14.10
2023-05-21T19:44:17.803Z,13.13
2023-05-21T19:46:44.212Z,13.55
2023-05-21T19:49:10.569Z,12.50
2023-05-21T19:51:36.980Z,13.23
2023-05-21T19:54:03.375Z,12.85
2023-05-21T19:56:29.716Z,14.32
2023-05-21T19:58:56.068Z,14.40
2023-05-21T20:01:22.495Z,14.27
2023-05-21T20:03:48.944Z,13.38
2023-05-21T20:06:15.376Z,13.65
2023-05-21T20:08:41.819Z,13.45
2023-05-21T20:11:08.199Z,13.77
2023-05-21T20:13:34.575Z,14.07
2023-05-21T20:16:00.966Z,13.00
2023-05-21T20:18:27.326Z,12.95
2023-05-21T20:20:53.678Z,14.38
2023-05-21T20:23:20.035Z,14.15
2023-05-21T20:25:46.459Z,14.25
2023-05-21T20:28:12.841Z,13.63
2023-05-21T20:30:53.000Z,14.75
2023-05-21T20:33:19.869Z,14.13
2023-05-21T20:35:46.235Z,15.40
2023-05-21T20:38:12.608Z,14.70
2023-05-21T20:40:39.148Z,15.38
2023-05-21T20:43:05.746Z,15.77
2023-05-21T20:45:32.264Z,15.35
2023-05-21T20:47:58.764Z,14.02
2023-05-21T20:50:25.119Z,14.95
2023-05-21T20:52:52.037Z,13.85
2023-05-21T20:55:19.399Z,14.80
2023-05-21T20:57:45.768Z,15.18
2023-05-21T21:00:12.919Z,15.90
2023-05-21T21:02:39.386Z,14.68
2023-05-21T21:05:06.287Z,14.75
2023-05-21T21:07:32.754Z,15.10
2023-05-21T21:09:59.100Z,15.85
2023-05-21T21:12:26.846Z,15.60
2023-05-21T21:14:53.956Z,15.32
2023-05-21T21:17:20.909Z,15.95
2023-05-21T21:19:47.372Z,15.15
2023-05-21T21:22:15.170Z,14.73
2023-05-21T21:24:41.603Z,15.23
2023-05-21T21:27:07.970Z,15.80
2023-05-21T21:29:34.376Z,15.43
2023-05-21T21:32:01.189Z,16.70
2023-05-21T21:34:27.563Z,15.70
2023-05-21T21:36:54.285Z,16.45
2023-05-21T21:39:20.724Z,16.45
2023-05-21T21:41:47.193Z,16.25
2023-05-21T21:44:13.565Z,17.13
2023-05-21T21:46:39.913Z,16.30
2023-05-21T21:49:06.251Z,16.20
2023-05-21T21:51:33.756Z,16.98
2023-05-21T21:54:00.174Z,16.50
2023-05-21T21:56:26.551Z,17.50
2023-05-21T21:58:52.886Z,18.27
2023-05-21T22:01:19.338Z,17.05
2023-05-21T22:03:45.707Z,16.60
2023-05-21T22:06:12.075Z,18.30
2023-05-21T22:08:38.437Z,18.83
2023-05-21T22:11:04.788Z,17.77
2023-05-21T22:13:31.119Z,17.15
2023-05-21T22:15:57.475Z,18.52
2023-05-21T22:18:38.736Z,18.17
2023-05-21T22:21:06.400Z,17.90
2023-05-21T22:23:32.769Z,17.75
2023-05-21T22:25:59.116Z,18.02
2023-05-21T22:28:25.534Z,18.08
2023-05-21T22:30:51.901Z,18.15
2023-05-21T22:33:18.422Z,19.77
2023-05-21T22:35:44.841Z,20.25
2023-05-21T22:38:11.270Z,20.60
2023-05-21T22:40:37.798Z,20.83
2023-05-21T22:43:04.703Z,23.15
2023-05-21T22:45:31.117Z,22.15
2023-05-21T22:47:57.517Z,20.77
2023-05-21T22:50:23.876Z,21.55
2023-05-21T22:52:50.256Z,20.63
2023-05-21T22:55:16.801Z,22.48
2023-05-21T22:57:43.428Z,22.58
2023-05-21T23:00:10.216Z,22.00
2023-05-21T23:02:36.621Z,22.45
2023-05-21T23:05:03.226Z,22.30
2023-05-21T23:07:29.668Z,21.67
2023-05-21T23:09:56.050Z,22.05
2023-05-21T23:12:22.530Z,21.10
2023-05-21T23:14:48.906Z,22.67
2023-05-21T23:17:15.324Z,23.23
2023-05-21T23:19:41.725Z,21.17
2023-05-21T23:22:08.241Z,22.52
2023-05-21T23:24:34.703Z,22.17
2023-05-21T23:27:01.091Z,24.38
2023-05-21T23:29:27.683Z,22.85
2023-05-21T23:31:54.323Z,22.23
2023-05-21T23:34:20.688Z,24.80
2023-05-21T23:36:47.026Z,22.67
2023-05-21T23:39:13.446Z,22.95
2023-05-21T23:41:39.889Z,22.38
2023-05-21T23:44:06.271Z,21.55
2023-05-21T23:46:32.620Z,21.67
2023-05-21T23:48:59.020Z,21.35
2023-05-21T23:51:25.475Z,21.40
2023-05-21T23:53:51.825Z,22.75
2023-05-21T23:56:18.601Z,23.17
2023-05-21T23:58:44.962Z,24.20
